aviador You're here:

KHKY Decoded Metar

HICKORY in NC, USA
Report Time2018-07-22 13:53:00
UTC Time2018-07-22 14:30:18
Flight Rules vfr VFR
Wind250° at 03 kt
W.Decomp.*RWY 24: 2.9 kt HW 0.8 kt RCW
RWY 19: 1.2 kt HW 2.7 kt RCW
W.Rank250° ranks 26
Current wind is below 250° avg. (5.5)
Visibility9999 m
Phenomena:N/A
Clouds:Few 011 Hf
Broken 060 Hf
Broken 075 Hf
Expected CloudBase > 1,200 ft AGL from Temp-Dew spread
Ceiling6,000 ft
Temp23°C (ISA +10)
Dew Point20°C (83% RH)
QNH1009 hPa
Density Alt2,805 ft
Elevation1,161 ft
Report Wrong Elevation
Raw Report
METAR KHKY 221353Z 25003KT 10SM FEW011 BKN060 BKN075 23/20 A2979 RMK
AO2 SLP065 T02280200=

Extra information for KHKY:More info

Metar Taf Metar & Taf Last 4 Metars F.Rules Stats Wind Profile Meteogram Temp Stats Airport Information Weather charts Add Link Nearby VenuesMetar ALERT Operation Metar Decoded Social comments

AIRNAV info for KHKY